createdAt,value
2022-10-31T00:01:39.185Z,8.60
2022-10-31T00:06:42.408Z,8.60
2022-10-31T00:11:48.111Z,8.50
2022-10-31T00:16:51.362Z,8.40
2022-10-31T00:21:58.562Z,8.30
2022-10-31T00:27:03.301Z,8.20
2022-10-31T00:32:06.766Z,8.30
2022-10-31T00:37:12.067Z,8.30
2022-10-31T00:42:16.688Z,8.50
2022-10-31T00:47:20.019Z,8.50
2022-10-31T00:52:23.325Z,8.50
2022-10-31T00:57:29.102Z,8.40
2022-10-31T01:02:32.440Z,8.30
2022-10-31T01:07:38.256Z,8.20
2022-10-31T01:12:44.848Z,8.10
2022-10-31T01:17:48.576Z,8.10
2022-10-31T01:22:52.026Z,8.10
2022-10-31T01:28:01.172Z,8.00
2022-10-31T01:33:04.650Z,7.80
2022-10-31T01:38:08.481Z,7.70
2022-10-31T01:43:15.852Z,7.80
2022-10-31T01:48:22.255Z,7.80
2022-10-31T01:53:31.790Z,7.80
2022-10-31T01:58:36.550Z,7.90
2022-10-31T02:03:39.958Z,8.10
2022-10-31T02:08:44.611Z,8.10
2022-10-31T02:13:56.033Z,8.10
2022-10-31T02:19:00.428Z,8.10
2022-10-31T02:24:27.648Z,8.10
2022-10-31T02:30:09.347Z,8.10
2022-10-31T02:35:36.762Z,8.10
2022-10-31T02:40:51.072Z,8.10
2022-10-31T02:46:01.797Z,8.10
2022-10-31T02:51:07.269Z,8.00
2022-10-31T02:56:14.952Z,7.90
2022-10-31T03:01:39.684Z,7.80
2022-10-31T03:06:51.601Z,7.60
2022-10-31T03:12:00.950Z,7.50
2022-10-31T03:17:08.221Z,7.40
2022-10-31T03:22:19.806Z,7.40
2022-10-31T03:27:27.231Z,7.40
2022-10-31T03:32:33.900Z,7.30
2022-10-31T03:37:42.853Z,7.30
2022-10-31T03:42:54.148Z,7.20
2022-10-31T03:47:58.857Z,7.10
2022-10-31T03:53:10.487Z,7.10
2022-10-31T03:58:22.539Z,7.10
2022-10-31T04:03:29.246Z,7.10
2022-10-31T04:08:39.085Z,7.10
2022-10-31T04:13:44.460Z,7.10
2022-10-31T04:18:47.734Z,7.10
2022-10-31T04:23:58.821Z,7.00
2022-10-31T04:29:05.476Z,7.00
2022-10-31T04:34:09.416Z,7.00
2022-10-31T04:39:14.061Z,7.00
2022-10-31T04:44:18.621Z,6.80
2022-10-31T04:49:21.912Z,6.60
2022-10-31T04:54:27.376Z,6.50
2022-10-31T04:59:30.732Z,6.40
2022-10-31T05:04:34.116Z,6.30
2022-10-31T05:09:38.759Z,6.30
2022-10-31T05:14:44.755Z,6.30
2022-10-31T05:19:50.857Z,6.30
2022-10-31T05:24:55.510Z,6.10
2022-10-31T05:35:05.501Z,6.00
2022-10-31T05:40:13.089Z,6.00
2022-10-31T05:45:18.156Z,6.00
2022-10-31T05:50:25.297Z,5.90
2022-10-31T05:55:30.956Z,6.00
2022-10-31T06:00:40.414Z,6.10
2022-10-31T06:05:49.208Z,6.10
2022-10-31T06:10:56.935Z,6.10
2022-10-31T06:16:00.207Z,6.20
2022-10-31T06:21:03.679Z,6.20
2022-10-31T06:26:08.395Z,6.30
2022-10-31T06:31:11.649Z,6.20
2022-10-31T06:36:17.028Z,6.40
2022-10-31T06:41:21.671Z,6.50
2022-10-31T06:46:28.920Z,6.60
2022-10-31T06:51:38.139Z,6.80
2022-10-31T06:56:43.035Z,6.90
2022-10-31T07:01:46.443Z,7.10
2022-10-31T07:06:51.943Z,7.20
2022-10-31T07:11:56.798Z,7.40
2022-10-31T07:17:00.098Z,7.70
2022-10-31T07:22:06.509Z,8.00
2022-10-31T07:27:12.349Z,8.30
2022-10-31T07:32:15.591Z,8.60
2022-10-31T07:37:19.083Z,8.90
2022-10-31T07:42:23.877Z,9.20
2022-10-31T07:53:02.133Z,9.80
2022-10-31T07:58:08.117Z,10.10
2022-10-31T08:03:17.436Z,10.30
2022-10-31T08:08:20.775Z,10.60
2022-10-31T08:13:25.419Z,11.00
2022-10-31T08:18:30.726Z,11.50
2022-10-31T08:23:33.891Z,11.80
2022-10-31T08:28:38.514Z,12.30
2022-10-31T08:33:41.702Z,12.90
2022-10-31T08:38:46.202Z,13.70
2022-10-31T08:43:50.853Z,14.00
2022-10-31T08:48:55.218Z,14.20
2022-10-31T08:53:58.834Z,14.20
2022-10-31T08:59:03.490Z,14.60
2022-10-31T09:04:07.892Z,14.80
2022-10-31T09:09:11.211Z,15.10
2022-10-31T09:14:15.865Z,15.40
2022-10-31T09:19:19.246Z,15.80
2022-10-31T09:24:23.810Z,15.90
2022-10-31T09:29:28.482Z,16.00
2022-10-31T09:34:31.735Z,16.20
2022-10-31T09:39:43.468Z,16.50
2022-10-31T09:44:53.948Z,16.50
2022-10-31T09:50:13.957Z,16.20
2022-10-31T09:55:20.526Z,15.80
2022-10-31T10:00:25.487Z,16.10
2022-10-31T10:05:36.480Z,16.10
2022-10-31T10:10:50.504Z,15.90
2022-10-31T10:16:09.414Z,15.90
2022-10-31T10:21:24.897Z,15.60
2022-10-31T10:31:42.802Z,15.20
2022-10-31T10:36:55.149Z,15.30
2022-10-31T10:42:18.544Z,15.40
2022-10-31T10:47:41.642Z,15.70
2022-10-31T10:52:53.703Z,16.10
2022-10-31T10:58:01.011Z,16.50
2022-10-31T11:03:06.828Z,17.20
2022-10-31T11:08:10.663Z,17.40
2022-10-31T11:13:27.526Z,17.20
2022-10-31T11:18:33.885Z,17.20
2022-10-31T11:23:37.634Z,17.40
2022-10-31T11:28:40.999Z,17.90
2022-10-31T11:33:51.505Z,17.80
2022-10-31T11:38:55.863Z,18.10
2022-10-31T11:44:02.132Z,18.20
2022-10-31T11:49:12.999Z,18.40
2022-10-31T11:54:24.465Z,18.40
2022-10-31T11:59:30.643Z,18.60
2022-10-31T12:04:44.214Z,18.50
2022-10-31T12:09:47.572Z,18.20
2022-10-31T12:15:01.870Z,18.00
2022-10-31T12:20:20.141Z,17.80
2022-10-31T12:25:36.838Z,17.70
2022-10-31T12:30:51.665Z,17.60
2022-10-31T12:36:11.047Z,17.60
2022-10-31T12:41:34.644Z,17.40
2022-10-31T12:46:57.215Z,17.30
2022-10-31T12:52:15.774Z,17.30
2022-10-31T12:57:26.017Z,17.30
2022-10-31T13:02:33.200Z,17.30
2022-10-31T13:07:41.573Z,17.30
2022-10-31T13:12:46.127Z,17.30
2022-10-31T13:17:52.238Z,17.50
2022-10-31T13:23:17.605Z,17.60
2022-10-31T13:28:33.576Z,18.00
2022-10-31T13:33:41.849Z,18.10
2022-10-31T13:38:53.716Z,18.10
2022-10-31T13:44:03.736Z,18.20
2022-10-31T13:49:23.796Z,18.40
2022-10-31T13:54:36.917Z,18.40
2022-10-31T13:59:40.593Z,18.40
2022-10-31T14:04:51.458Z,18.80
2022-10-31T14:09:59.682Z,19.10
2022-10-31T14:15:07.907Z,19.20
2022-10-31T14:20:40.066Z,19.00
2022-10-31T14:25:45.778Z,18.90
2022-10-31T14:30:54.955Z,18.40
2022-10-31T14:36:03.466Z,18.10
2022-10-31T14:41:28.130Z,17.80
2022-10-31T14:46:47.428Z,17.40
2022-10-31T14:51:52.301Z,17.20
2022-10-31T14:57:01.660Z,17.20
2022-10-31T15:02:22.846Z,17.00
2022-10-31T15:07:29.810Z,16.60
2022-10-31T15:12:39.141Z,16.20
2022-10-31T15:17:50.190Z,15.80
2022-10-31T15:22:57.822Z,15.50
2022-10-31T15:28:02.931Z,15.10
2022-10-31T15:33:21.756Z,14.70
2022-10-31T15:38:27.057Z,14.30
2022-10-31T15:43:36.540Z,14.10
2022-10-31T15:48:41.736Z,13.80
2022-10-31T15:53:49.480Z,13.60
2022-10-31T15:58:57.166Z,13.40
2022-10-31T16:04:06.718Z,13.30
2022-10-31T16:09:24.387Z,13.30
2022-10-31T16:14:32.820Z,13.20
2022-10-31T16:19:38.593Z,13.10
2022-10-31T16:24:48.651Z,12.90
2022-10-31T16:29:57.387Z,12.70
2022-10-31T16:35:22.052Z,12.40
2022-10-31T16:40:28.346Z,12.20
2022-10-31T16:45:35.354Z,12.00
2022-10-31T16:50:40.812Z,11.70
2022-10-31T16:55:47.329Z,11.50
2022-10-31T17:00:52.747Z,11.20
2022-10-31T17:05:58.546Z,11.10
2022-10-31T17:11:01.938Z,10.90
2022-10-31T17:16:07.799Z,10.80
2022-10-31T17:21:17.693Z,10.70
2022-10-31T17:26:22.575Z,10.60
2022-10-31T17:31:31.458Z,10.50
2022-10-31T17:36:35.591Z,10.50
2022-10-31T17:41:38.792Z,10.40
2022-10-31T17:46:43.480Z,10.30
2022-10-31T17:51:46.740Z,10.30
2022-10-31T17:56:50.168Z,10.30
2022-10-31T18:01:56.030Z,10.40
2022-10-31T18:07:01.689Z,10.30
2022-10-31T18:12:05.460Z,10.30
2022-10-31T18:17:10.241Z,10.20
2022-10-31T18:22:13.693Z,10.10
2022-10-31T18:27:18.020Z,10.40
2022-10-31T18:32:22.695Z,10.30
2022-10-31T18:37:31.813Z,10.30
2022-10-31T18:42:35.105Z,10.40
2022-10-31T18:47:41.860Z,10.30
2022-10-31T18:52:45.127Z,10.10
2022-10-31T18:57:48.365Z,10.10
2022-10-31T19:02:56.333Z,10.30
2022-10-31T19:08:01.040Z,10.20
2022-10-31T19:13:05.022Z,10.00
2022-10-31T19:18:10.852Z,10.30
2022-10-31T19:23:14.122Z,10.50
2022-10-31T19:28:17.406Z,10.40
2022-10-31T19:33:22.100Z,10.40
2022-10-31T19:38:26.480Z,10.40
2022-10-31T19:43:29.961Z,10.50
2022-10-31T19:48:37.228Z,10.50
2022-10-31T19:53:41.213Z,10.60
2022-10-31T19:58:44.500Z,10.50
2022-10-31T20:03:50.073Z,10.50
2022-10-31T20:08:54.445Z,10.50
2022-10-31T20:13:58.816Z,10.60
2022-10-31T20:19:03.767Z,10.80
2022-10-31T20:24:09.427Z,11.40
2022-10-31T20:29:16.190Z,11.90
2022-10-31T20:34:20.843Z,12.20
2022-10-31T20:39:24.123Z,12.40
2022-10-31T20:44:27.836Z,12.50
2022-10-31T20:49:33.513Z,12.40
2022-10-31T20:54:36.766Z,12.30
2022-10-31T20:59:40.023Z,12.20
2022-10-31T21:04:44.859Z,12.20
2022-10-31T21:09:48.275Z,12.00
2022-10-31T21:14:51.625Z,11.80
2022-10-31T21:20:10.092Z,11.70
2022-10-31T21:25:13.461Z,11.50
2022-10-31T21:30:16.798Z,11.40
2022-10-31T21:35:23.598Z,11.30
2022-10-31T21:40:27.104Z,11.20
2022-10-31T21:45:30.438Z,11.20
2022-10-31T21:50:38.408Z,11.00
2022-10-31T21:55:51.037Z,10.90
2022-10-31T22:00:54.371Z,10.90
2022-10-31T22:06:03.484Z,10.80
2022-10-31T22:11:09.011Z,10.80
2022-10-31T22:16:14.131Z,10.70
2022-10-31T22:21:23.800Z,10.60
2022-10-31T22:26:28.243Z,10.60
2022-10-31T22:31:35.063Z,10.70
2022-10-31T22:36:40.046Z,10.70
2022-10-31T22:41:44.285Z,10.70
2022-10-31T22:46:47.586Z,10.80
2022-10-31T22:51:52.286Z,10.70
2022-10-31T22:56:55.594Z,10.80
2022-10-31T23:02:00.025Z,10.70
2022-10-31T23:07:04.950Z,10.50
2022-10-31T23:12:22.348Z,10.40
2022-10-31T23:17:25.627Z,10.20
2022-10-31T23:22:33.585Z,10.10
2022-10-31T23:27:39.978Z,9.90
2022-10-31T23:32:43.204Z,9.80
2022-10-31T23:37:47.987Z,9.70
2022-10-31T23:42:51.197Z,9.90
2022-10-31T23:47:54.595Z,10.00
2022-10-31T23:52:59.551Z,10.10
2022-10-31T23:58:04.241Z,10.20
